createdAt,value
2018-02-20T00:02:06.423Z,32.30
2018-02-20T00:05:12.001Z,35.90
2018-02-20T00:08:17.634Z,32.80
2018-02-20T00:11:23.215Z,29.30
2018-02-20T00:14:28.731Z,26.73
2018-02-20T00:17:34.294Z,32.83
2018-02-20T00:20:39.856Z,29.37
2018-02-20T00:23:45.186Z,38.70
2018-02-20T00:26:50.704Z,32.00
2018-02-20T00:29:56.311Z,33.23
2018-02-20T00:33:01.847Z,29.93
2018-02-20T00:36:07.401Z,29.93
2018-02-20T00:39:16.412Z,37.40
2018-02-20T00:42:23.886Z,29.77
2018-02-20T00:45:29.473Z,35.70
2018-02-20T00:48:35.043Z,31.67
2018-02-20T00:51:40.577Z,30.93
2018-02-20T00:54:46.140Z,29.57
2018-02-20T00:57:51.689Z,34.53
2018-02-20T01:00:57.276Z,34.10
2018-02-20T01:04:02.813Z,28.10
2018-02-20T01:07:08.414Z,30.87
2018-02-20T01:10:13.939Z,32.73
2018-02-20T01:13:19.514Z,36.70
2018-02-20T01:16:25.035Z,32.87
2018-02-20T01:19:30.608Z,31.57
2018-02-20T01:22:36.151Z,31.77
2018-02-20T01:25:41.721Z,30.80
2018-02-20T01:28:47.241Z,30.50
2018-02-20T01:31:52.813Z,36.60
2018-02-20T01:34:58.329Z,33.37
2018-02-20T01:38:03.889Z,32.53
2018-02-20T01:41:09.420Z,31.63
2018-02-20T01:44:14.993Z,36.23
2018-02-20T01:47:20.554Z,30.20
2018-02-20T01:50:26.179Z,31.30
2018-02-20T01:53:31.761Z,35.40
2018-02-20T01:56:37.354Z,34.07
2018-02-20T01:59:43.101Z,34.43
2018-02-20T02:02:48.631Z,29.83
2018-02-20T02:05:54.209Z,32.73
2018-02-20T02:08:59.760Z,35.93
2018-02-20T02:12:05.328Z,38.20
2018-02-20T02:15:10.842Z,31.60
2018-02-20T02:18:16.438Z,41.07
2018-02-20T02:21:21.998Z,31.73
2018-02-20T02:24:27.557Z,42.30
2018-02-20T02:27:33.101Z,32.17
2018-02-20T02:30:38.696Z,33.87
2018-02-20T02:33:44.218Z,34.83
2018-02-20T02:36:49.806Z,35.13
2018-02-20T02:39:55.360Z,33.43
2018-02-20T02:43:00.940Z,34.70
2018-02-20T02:46:06.481Z,35.13
2018-02-20T02:49:12.039Z,34.90
2018-02-20T02:52:17.577Z,35.40
2018-02-20T02:55:23.173Z,35.30
2018-02-20T02:58:28.733Z,32.13
2018-02-20T03:01:34.250Z,29.40
2018-02-20T03:04:39.842Z,33.93
2018-02-20T03:07:45.386Z,29.63
2018-02-20T03:10:50.941Z,33.17
2018-02-20T03:13:57.300Z,31.50
2018-02-20T03:17:02.859Z,38.53
2018-02-20T03:20:08.488Z,32.03
2018-02-20T03:23:14.064Z,34.20
2018-02-20T03:26:19.634Z,32.37
2018-02-20T03:29:25.159Z,26.93
2018-02-20T03:32:30.733Z,34.00
2018-02-20T03:35:36.259Z,35.33
2018-02-20T03:38:41.825Z,29.67
2018-02-20T03:41:47.345Z,30.40
2018-02-20T03:44:52.910Z,32.03
2018-02-20T03:47:58.481Z,30.73
2018-02-20T03:51:04.000Z,30.60
2018-02-20T03:54:09.590Z,34.63
2018-02-20T03:57:15.152Z,33.87
2018-02-20T04:00:20.896Z,36.50
2018-02-20T04:03:26.420Z,33.97
2018-02-20T04:06:31.984Z,28.40
2018-02-20T04:09:37.601Z,30.03
2018-02-20T04:12:49.554Z,33.97
2018-02-20T04:15:56.796Z,35.37
2018-02-20T04:19:02.349Z,31.37
2018-02-20T04:22:07.861Z,34.47
2018-02-20T04:25:13.426Z,34.73
2018-02-20T04:28:18.942Z,36.07
2018-02-20T04:31:24.549Z,29.10
2018-02-20T04:34:30.113Z,35.43
2018-02-20T04:37:36.917Z,36.73
2018-02-20T04:40:44.796Z,32.90
2018-02-20T04:43:50.346Z,31.20
2018-02-20T04:46:55.932Z,31.53
2018-02-20T04:50:02.522Z,32.67
2018-02-20T04:53:08.091Z,34.20
2018-02-20T04:56:14.294Z,33.87
2018-02-20T04:59:19.867Z,34.90
2018-02-20T05:02:25.392Z,31.40
2018-02-20T05:05:31.364Z,33.83
2018-02-20T05:08:37.888Z,31.50
2018-02-20T05:11:43.451Z,36.00
2018-02-20T05:14:49.965Z,32.40
2018-02-20T05:17:55.296Z,37.77
2018-02-20T05:21:00.849Z,36.43
2018-02-20T05:24:06.422Z,35.17
2018-02-20T05:27:12.945Z,30.83
2018-02-20T05:30:32.096Z,35.23
2018-02-20T05:33:37.662Z,36.53
2018-02-20T05:36:43.177Z,34.60
2018-02-20T05:39:50.956Z,35.50
2018-02-20T05:42:57.011Z,30.87
2018-02-20T05:46:02.609Z,33.50
2018-02-20T05:49:08.143Z,35.87
2018-02-20T05:52:13.701Z,35.57
2018-02-20T05:55:19.257Z,34.40
2018-02-20T05:58:24.787Z,35.83
2018-02-20T06:01:30.357Z,28.43
2018-02-20T06:04:35.869Z,37.00
2018-02-20T06:07:45.705Z,42.43
2018-02-20T06:10:51.294Z,36.83
2018-02-20T06:13:56.867Z,37.70
2018-02-20T06:17:02.401Z,37.50
2018-02-20T06:20:07.977Z,35.17
2018-02-20T06:23:13.499Z,38.83
2018-02-20T06:26:19.071Z,35.80
2018-02-20T06:29:24.585Z,33.97
2018-02-20T06:32:30.145Z,32.20
2018-02-20T06:35:35.651Z,35.57
2018-02-20T06:38:41.230Z,40.93
2018-02-20T06:41:46.750Z,31.83
2018-02-20T06:44:52.324Z,31.87
2018-02-20T06:47:57.881Z,35.07
2018-02-20T06:51:03.394Z,36.23
2018-02-20T06:54:08.982Z,35.90
2018-02-20T06:57:14.493Z,36.00
2018-02-20T07:00:20.087Z,41.93
2018-02-20T07:03:25.645Z,34.50
2018-02-20T07:06:31.238Z,32.70
2018-02-20T07:09:36.792Z,37.23
2018-02-20T07:12:42.356Z,34.30
2018-02-20T07:15:47.914Z,32.33
2018-02-20T07:18:53.466Z,29.17
2018-02-20T07:21:58.983Z,33.60
2018-02-20T07:25:04.566Z,37.90
2018-02-20T07:28:10.121Z,34.83
2018-02-20T07:31:15.693Z,36.17
2018-02-20T07:34:21.201Z,31.50
2018-02-20T07:37:26.758Z,34.00
2018-02-20T07:40:32.346Z,35.07
2018-02-20T07:43:37.855Z,37.50
2018-02-20T07:46:43.436Z,38.97
2018-02-20T07:49:48.949Z,38.00
2018-02-20T07:52:54.515Z,34.97
2018-02-20T07:56:00.117Z,36.50
2018-02-20T07:59:05.642Z,42.00
2018-02-20T08:02:11.194Z,42.23
2018-02-20T08:05:16.718Z,39.07
2018-02-20T08:08:22.270Z,42.60
2018-02-20T08:11:27.876Z,40.20
2018-02-20T08:14:33.394Z,38.37
2018-02-20T08:17:41.427Z,37.53
2018-02-20T08:20:46.786Z,41.10
2018-02-20T08:23:52.301Z,35.40
2018-02-20T08:26:57.875Z,39.23
2018-02-20T08:30:03.152Z,40.20
2018-02-20T08:33:08.746Z,39.30
2018-02-20T08:36:14.262Z,40.53
2018-02-20T08:39:19.818Z,44.87
2018-02-20T08:42:25.341Z,40.93
2018-02-20T08:45:30.889Z,46.83
2018-02-20T08:48:36.414Z,43.17
2018-02-20T08:51:41.971Z,46.10
2018-02-20T08:54:47.494Z,48.33
2018-02-20T08:57:53.075Z,49.80
2018-02-20T09:00:58.632Z,43.73
2018-02-20T09:04:04.234Z,42.80
2018-02-20T09:07:09.817Z,49.50
2018-02-20T09:10:15.582Z,49.50
2018-02-20T09:13:21.102Z,50.97
2018-02-20T09:16:26.672Z,50.20
2018-02-20T09:19:32.191Z,45.87
2018-02-20T09:22:37.767Z,45.20
2018-02-20T09:25:43.362Z,49.17
2018-02-20T09:28:48.954Z,44.47
2018-02-20T09:31:54.508Z,42.93
